createdAt,value
2017-12-26T00:00:51.125Z,0
2017-12-26T00:01:51.142Z,0
2017-12-26T00:02:51.708Z,0
2017-12-26T00:03:51.705Z,0
2017-12-26T00:04:51.723Z,0
2017-12-26T00:05:51.438Z,0
2017-12-26T00:06:51.234Z,0
2017-12-26T00:07:51.493Z,0
2017-12-26T00:08:51.219Z,0
2017-12-26T00:09:51.536Z,0
2017-12-26T00:10:51.508Z,0
2017-12-26T00:11:51.537Z,0
2017-12-26T00:12:51.338Z,0
2017-12-26T00:13:51.836Z,0
2017-12-26T00:14:51.550Z,0
2017-12-26T00:15:51.054Z,0
2017-12-26T00:16:51.333Z,0
2017-12-26T00:17:51.614Z,0
2017-12-26T00:18:51.596Z,0
2017-12-26T00:19:51.627Z,0
2017-12-26T00:20:51.881Z,0
2017-12-26T00:21:51.406Z,0
2017-12-26T00:22:51.662Z,0
2017-12-26T00:23:51.414Z,0
2017-12-26T00:24:51.936Z,0
2017-12-26T00:25:51.448Z,0
2017-12-26T00:26:51.454Z,0
2017-12-26T00:27:51.516Z,0
2017-12-26T00:28:52.005Z,0
2017-12-26T00:29:51.523Z,0
2017-12-26T00:30:51.846Z,0
2017-12-26T00:31:52.040Z,0
2017-12-26T00:32:52.052Z,0
2017-12-26T00:33:51.593Z,0
2017-12-26T00:34:51.814Z,0
2017-12-26T00:35:51.846Z,0
2017-12-26T00:36:51.841Z,0
2017-12-26T00:37:51.958Z,0
2017-12-26T00:38:52.129Z,0
2017-12-26T00:39:52.156Z,0
2017-12-26T00:40:52.174Z,0
2017-12-26T00:41:51.909Z,0
2017-12-26T00:42:51.970Z,0
2017-12-26T00:43:51.939Z,0
2017-12-26T00:44:52.214Z,0
2017-12-26T00:45:51.963Z,0
2017-12-26T00:46:51.976Z,0
2017-12-26T00:47:52.038Z,0
2017-12-26T00:48:52.270Z,0
2017-12-26T00:49:52.021Z,0
2017-12-26T00:50:52.039Z,0
2017-12-26T00:51:52.353Z,0
2017-12-26T00:52:52.318Z,0
2017-12-26T00:53:52.326Z,0
2017-12-26T00:54:52.393Z,0
2017-12-26T00:55:52.102Z,0
2017-12-26T00:56:52.371Z,0
2017-12-26T00:57:52.439Z,0
2017-12-26T00:58:52.393Z,0
2017-12-26T00:59:52.157Z,0
2017-12-26T01:00:52.163Z,0
2017-12-26T01:01:52.175Z,0
2017-12-26T01:02:52.444Z,0
2017-12-26T01:03:52.210Z,0
2017-12-26T01:04:52.008Z,0
2017-12-26T01:05:52.488Z,0
2017-12-26T01:06:52.503Z,0
2017-12-26T01:07:52.274Z,0
2017-12-26T01:08:52.520Z,0
2017-12-26T01:09:52.287Z,0
2017-12-26T01:10:52.551Z,0
2017-12-26T01:11:52.318Z,0
2017-12-26T01:12:52.377Z,0
2017-12-26T01:13:52.092Z,0
2017-12-26T01:14:52.606Z,0
2017-12-26T01:15:52.114Z,0
2017-12-26T01:16:52.383Z,0
2017-12-26T01:17:52.395Z,0
2017-12-26T01:18:52.411Z,0
2017-12-26T01:19:52.675Z,0
2017-12-26T01:20:52.182Z,0
2017-12-26T01:21:52.701Z,0
2017-12-26T01:22:52.704Z,0
2017-12-26T01:23:52.215Z,0
2017-12-26T01:24:52.226Z,0
2017-12-26T01:25:52.243Z,0
2017-12-26T01:26:52.770Z,0
2017-12-26T01:27:52.324Z,0
2017-12-26T01:28:52.783Z,0
2017-12-26T01:29:52.551Z,0
2017-12-26T01:30:52.824Z,0
2017-12-26T01:31:52.568Z,0
2017-12-26T01:32:52.332Z,0
2017-12-26T01:33:52.598Z,0
2017-12-26T01:34:52.636Z,0
2017-12-26T01:35:52.632Z,0
2017-12-26T01:36:52.899Z,0
2017-12-26T01:37:52.405Z,0
2017-12-26T01:38:52.666Z,0
2017-12-26T01:39:52.436Z,0
2017-12-26T01:40:52.701Z,0
2017-12-26T01:41:52.713Z,0
2017-12-26T01:42:52.772Z,0
2017-12-26T01:43:52.487Z,0
2017-12-26T01:44:53.004Z,0
2017-12-26T01:45:53.020Z,0
2017-12-26T01:46:52.521Z,0
2017-12-26T01:47:52.537Z,0
2017-12-26T01:48:52.804Z,0
2017-12-26T01:49:53.070Z,0
2017-12-26T01:50:52.838Z,0
2017-12-26T01:51:52.596Z,0
2017-12-26T01:52:52.600Z,0
2017-12-26T01:53:52.867Z,0
2017-12-26T01:54:52.877Z,0
2017-12-26T01:55:52.387Z,0
2017-12-26T01:56:52.903Z,0
2017-12-26T01:57:53.319Z,0
2017-12-26T01:58:52.683Z,0
2017-12-26T01:59:52.437Z,0
2017-12-26T02:00:52.964Z,0
2017-12-26T02:01:52.737Z,0
2017-12-26T02:02:53.004Z,0
2017-12-26T02:03:53.254Z,0
2017-12-26T02:04:53.014Z,0
2017-12-26T02:05:53.023Z,0
2017-12-26T02:06:53.290Z,0
2017-12-26T02:07:53.058Z,0
2017-12-26T02:08:53.064Z,0
2017-12-26T02:09:53.071Z,0
2017-12-26T02:10:52.830Z,0
2017-12-26T02:11:53.105Z,0
2017-12-26T02:12:53.367Z,0
2017-12-26T02:13:53.136Z,0
2017-12-26T02:14:53.389Z,0
2017-12-26T02:15:53.180Z,0
2017-12-26T02:16:53.163Z,0
2017-12-26T02:17:53.180Z,0
2017-12-26T02:18:53.454Z,0
2017-12-26T02:19:53.208Z,0
2017-12-26T02:20:53.223Z,0
2017-12-26T02:21:53.230Z,0
2017-12-26T02:22:53.251Z,0
2017-12-26T02:23:53.270Z,0
2017-12-26T02:24:53.269Z,0
2017-12-26T02:25:53.279Z,0
2017-12-26T02:26:53.304Z,0
2017-12-26T02:27:53.311Z,0
2017-12-26T02:28:53.070Z,0
2017-12-26T02:29:53.336Z,0
2017-12-26T02:30:53.354Z,0
2017-12-26T02:31:53.618Z,0
2017-12-26T02:32:52.870Z,0
2017-12-26T02:33:53.393Z,0
2017-12-26T02:34:53.173Z,0
2017-12-26T02:35:53.166Z,0
2017-12-26T02:36:53.431Z,0
2017-12-26T02:37:53.441Z,0
2017-12-26T02:38:53.710Z,0
2017-12-26T02:39:53.720Z,0
2017-12-26T02:40:53.233Z,0
2017-12-26T02:41:53.871Z,0
2017-12-26T02:42:53.495Z,0
2017-12-26T02:43:53.059Z,0
2017-12-26T02:44:53.270Z,0
2017-12-26T02:45:53.555Z,0
2017-12-26T02:46:53.805Z,0
2017-12-26T02:47:53.070Z,0
2017-12-26T02:48:53.852Z,0
2017-12-26T02:49:53.605Z,0
2017-12-26T02:50:53.610Z,0
2017-12-26T02:51:53.370Z,0
2017-12-26T02:52:53.387Z,0
2017-12-26T02:53:53.903Z,0
2017-12-26T02:54:53.927Z,0
2017-12-26T02:55:53.421Z,0
2017-12-26T02:56:53.940Z,0
2017-12-26T02:57:53.700Z,0
2017-12-26T02:58:53.514Z,0
2017-12-26T02:59:53.725Z,0
2017-12-26T03:00:53.734Z,0
2017-12-26T03:01:53.500Z,0
2017-12-26T03:02:53.512Z,0
2017-12-26T03:03:53.526Z,0
2017-12-26T03:04:53.543Z,0
2017-12-26T03:05:53.555Z,0
2017-12-26T03:06:53.570Z,0
2017-12-26T03:07:53.824Z,0
2017-12-26T03:08:53.737Z,0
2017-12-26T03:09:54.095Z,0
2017-12-26T03:10:53.854Z,0
2017-12-26T03:11:53.869Z,0
2017-12-26T03:12:54.134Z,0
2017-12-26T03:13:53.690Z,0
2017-12-26T03:14:54.168Z,0
2017-12-26T03:15:54.173Z,0
2017-12-26T03:16:53.932Z,0
2017-12-26T03:17:54.219Z,0
2017-12-26T03:18:53.980Z,0
2017-12-26T03:19:54.243Z,0
2017-12-26T03:20:54.263Z,0
2017-12-26T03:21:54.274Z,0
2017-12-26T03:22:54.032Z,0
2017-12-26T03:23:54.042Z,0
2017-12-26T03:24:54.056Z,0
2017-12-26T03:25:54.326Z,0
2017-12-26T03:26:54.087Z,0
2017-12-26T03:27:54.106Z,0
2017-12-26T03:28:53.898Z,0
2017-12-26T03:29:53.875Z,0
2017-12-26T03:30:54.139Z,0
2017-12-26T03:31:53.896Z,0
2017-12-26T03:32:54.410Z,0
2017-12-26T03:33:53.923Z,0
2017-12-26T03:34:54.189Z,0
2017-12-26T03:35:54.491Z,0
2017-12-26T03:36:53.977Z,0
2017-12-26T03:37:54.484Z,0
2017-12-26T03:38:53.987Z,0
2017-12-26T03:39:54.006Z,0
2017-12-26T03:40:54.264Z,0
2017-12-26T03:41:54.025Z,0
2017-12-26T03:42:54.541Z,0
2017-12-26T03:43:54.359Z,0
2017-12-26T03:44:54.320Z,0
2017-12-26T03:45:54.330Z,0
2017-12-26T03:46:54.597Z,0
2017-12-26T03:47:54.111Z,0
2017-12-26T03:48:54.369Z,0
2017-12-26T03:49:54.392Z,0
2017-12-26T03:50:54.661Z,0
2017-12-26T03:51:54.413Z,0
2017-12-26T03:52:54.422Z,0
2017-12-26T03:53:54.204Z,0
2017-12-26T03:54:54.459Z,0
2017-12-26T03:55:54.728Z,0
2017-12-26T03:56:54.230Z,0
2017-12-26T03:57:54.492Z,0
2017-12-26T03:58:54.807Z,0
2017-12-26T03:59:54.771Z,0
2017-12-26T04:00:54.284Z,0
2017-12-26T04:01:54.552Z,0
2017-12-26T04:02:54.561Z,0
2017-12-26T04:03:54.920Z,0
2017-12-26T04:04:54.844Z,0
2017-12-26T04:05:54.858Z,0
2017-12-26T04:06:54.613Z,0
2017-12-26T04:07:54.882Z,0
2017-12-26T04:08:54.892Z,0
2017-12-26T04:09:54.910Z,0
2017-12-26T04:10:54.667Z,0
2017-12-26T04:11:54.432Z,0
2017-12-26T04:12:54.947Z,0
2017-12-26T04:13:54.504Z,0
2017-12-26T04:14:54.719Z,0
2017-12-26T04:15:54.481Z,0
2017-12-26T04:16:54.750Z,0
2017-12-26T04:17:54.768Z,0
2017-12-26T04:18:55.023Z,0
2017-12-26T04:19:54.789Z,0
2017-12-26T04:20:54.293Z,0
2017-12-26T04:21:55.081Z,0
2017-12-26T04:22:54.577Z,0
2017-12-26T04:23:55.094Z,0
2017-12-26T04:24:54.852Z,0
2017-12-26T04:25:55.129Z,0
2017-12-26T04:26:55.146Z,0
2017-12-26T04:27:55.147Z,0
2017-12-26T04:28:55.210Z,0
2017-12-26T04:29:55.180Z,0
2017-12-26T04:30:54.930Z,0
2017-12-26T04:31:55.201Z,0
2017-12-26T04:32:54.703Z,0
2017-12-26T04:33:54.978Z,0
2017-12-26T04:34:55.239Z,0
2017-12-26T04:35:55.001Z,0
2017-12-26T04:36:55.009Z,0
2017-12-26T04:37:55.025Z,0
2017-12-26T04:38:55.062Z,0
2017-12-26T04:39:55.050Z,0
2017-12-26T04:40:55.076Z,0
2017-12-26T04:41:55.079Z,0
2017-12-26T04:42:55.088Z,0
2017-12-26T04:43:55.156Z,0
2017-12-26T04:44:55.120Z,0
2017-12-26T04:45:55.380Z,0
2017-12-26T04:46:55.135Z,0
2017-12-26T04:47:55.416Z,0
2017-12-26T04:48:55.165Z,0
2017-12-26T04:49:55.185Z,0
2017-12-26T04:50:55.187Z,0
2017-12-26T04:51:55.464Z,0
2017-12-26T04:52:55.219Z,0
2017-12-26T04:53:55.479Z,0
2017-12-26T04:54:54.994Z,0
2017-12-26T04:55:55.258Z,0
2017-12-26T04:56:55.270Z,0
2017-12-26T04:57:55.032Z,0
2017-12-26T04:58:55.101Z,0
2017-12-26T04:59:55.059Z,0
2017-12-26T05:00:55.333Z,0
2017-12-26T05:01:55.602Z,0
2017-12-26T05:02:55.624Z,0
2017-12-26T05:03:55.370Z,0
2017-12-26T05:04:55.387Z,0
2017-12-26T05:05:55.400Z,0
2017-12-26T05:06:55.166Z,0
2017-12-26T05:07:55.681Z,0
2017-12-26T05:08:55.439Z,0
2017-12-26T05:09:55.460Z,0
2017-12-26T05:10:55.468Z,0
2017-12-26T05:11:55.232Z,0
2017-12-26T05:12:55.496Z,0
2017-12-26T05:13:55.316Z,0
2017-12-26T05:14:55.525Z,0
2017-12-26T05:15:55.786Z,0
2017-12-26T05:16:55.564Z,0
2017-12-26T05:17:55.821Z,0
2017-12-26T05:18:55.835Z,0
2017-12-26T05:19:55.589Z,0
2017-12-26T05:20:55.988Z,0
2017-12-26T05:21:55.620Z,0
2017-12-26T05:22:55.887Z,0
2017-12-26T05:23:55.646Z,0
2017-12-26T05:24:55.659Z,0
2017-12-26T05:25:55.680Z,0
2017-12-26T05:26:55.942Z,0
2017-12-26T05:27:55.953Z,0
2017-12-26T05:28:55.512Z,0
2017-12-26T05:29:55.739Z,0
2017-12-26T05:30:55.744Z,0
2017-12-26T05:31:56.003Z,0
2017-12-26T05:32:55.769Z,0
2017-12-26T05:33:56.064Z,0
2017-12-26T05:34:55.540Z,0
2017-12-26T05:35:55.802Z,0
2017-12-26T05:36:56.078Z,0
2017-12-26T05:37:55.837Z,0
2017-12-26T05:38:56.198Z,0
2017-12-26T05:39:55.857Z,0
2017-12-26T05:40:55.624Z,0
2017-12-26T05:41:56.146Z,0
2017-12-26T05:42:55.903Z,0
2017-12-26T05:43:55.462Z,0
2017-12-26T05:44:55.934Z,0
2017-12-26T05:45:56.200Z,0
2017-12-26T05:46:55.707Z,0
2017-12-26T05:47:55.719Z,0
2017-12-26T05:48:56.243Z,0
2017-12-26T05:49:56.248Z,0
2017-12-26T05:50:55.759Z,0
2017-12-26T05:51:56.029Z,0
2017-12-26T05:52:56.306Z,0
2017-12-26T05:53:56.307Z,0
2017-12-26T05:54:56.070Z,0
2017-12-26T05:55:56.338Z,0
2017-12-26T05:56:56.348Z,0
2017-12-26T05:57:56.367Z,0
2017-12-26T05:58:56.176Z,0
2017-12-26T05:59:56.142Z,0
2017-12-26T06:00:56.439Z,0
2017-12-26T06:01:56.165Z,0
2017-12-26T06:02:56.435Z,0
2017-12-26T06:03:56.198Z,0
2017-12-26T06:04:56.208Z,0
2017-12-26T06:05:56.471Z,0
2017-12-26T06:06:55.980Z,0
2017-12-26T06:07:56.249Z,0
2017-12-26T06:08:56.511Z,0
2017-12-26T06:09:56.286Z,0
2017-12-26T06:10:56.291Z,0
2017-12-26T06:11:56.301Z,0
2017-12-26T06:12:56.066Z,0
2017-12-26T06:13:56.484Z,0
2017-12-26T06:14:56.346Z,0
2017-12-26T06:15:56.108Z,0
2017-12-26T06:16:56.375Z,0
2017-12-26T06:17:55.883Z,0
2017-12-26T06:18:56.398Z,0
2017-12-26T06:19:56.420Z,0
2017-12-26T06:20:56.431Z,0
2017-12-26T06:21:56.446Z,0
2017-12-26T06:22:56.455Z,0
2017-12-26T06:23:56.473Z,0
2017-12-26T06:24:56.745Z,0
2017-12-26T06:25:56.244Z,4
2017-12-26T06:26:56.516Z,0
2017-12-26T06:27:56.282Z,0
2017-12-26T06:28:56.844Z,0
2017-12-26T06:29:56.806Z,4
2017-12-26T06:30:56.830Z,0
2017-12-26T06:31:56.589Z,4
2017-12-26T06:32:56.552Z,0
2017-12-26T06:33:56.613Z,4
2017-12-26T06:34:56.377Z,4
2017-12-26T06:35:56.646Z,4
2017-12-26T06:36:56.655Z,4
2017-12-26T06:37:56.917Z,4
2017-12-26T06:38:56.701Z,8
2017-12-26T06:39:56.984Z,8
2017-12-26T06:40:56.710Z,12
2017-12-26T06:41:56.975Z,12
2017-12-26T06:42:56.990Z,16
2017-12-26T06:43:56.826Z,20
2017-12-26T06:44:56.518Z,20
2017-12-26T06:45:56.785Z,28
2017-12-26T06:46:57.051Z,32
2017-12-26T06:47:56.809Z,40
2017-12-26T06:48:56.322Z,44
2017-12-26T06:49:57.095Z,52
2017-12-26T06:50:56.599Z,60
2017-12-26T06:51:56.614Z,64
2017-12-26T06:52:56.881Z,76
2017-12-26T06:53:57.143Z,84
2017-12-26T06:54:56.908Z,88
2017-12-26T06:55:56.937Z,96
2017-12-26T06:56:56.687Z,112
2017-12-26T06:57:57.247Z,124
2017-12-26T06:58:57.024Z,140
2017-12-26T06:59:56.731Z,152
2017-12-26T07:00:56.998Z,168
2017-12-26T07:01:56.755Z,184
2017-12-26T07:02:57.028Z,204
2017-12-26T07:03:56.782Z,224
2017-12-26T07:04:57.260Z,240
2017-12-26T07:05:57.324Z,252
2017-12-26T07:06:57.081Z,268
2017-12-26T07:07:57.096Z,288
2017-12-26T07:08:56.851Z,320
2017-12-26T07:09:57.126Z,348
2017-12-26T07:10:57.142Z,372
2017-12-26T07:11:57.148Z,396
2017-12-26T07:12:57.432Z,416
2017-12-26T07:13:57.223Z,436
2017-12-26T07:14:56.937Z,452
2017-12-26T07:15:57.218Z,472
2017-12-26T07:16:57.481Z,492
2017-12-26T07:17:57.237Z,516
2017-12-26T07:18:57.506Z,536
2017-12-26T07:19:57.283Z,556
2017-12-26T07:20:57.285Z,576
2017-12-26T07:21:57.549Z,596
2017-12-26T07:22:57.561Z,612
2017-12-26T07:23:57.780Z,640
2017-12-26T07:24:57.356Z,668
2017-12-26T07:25:57.095Z,696
2017-12-26T07:26:57.382Z,712
2017-12-26T07:27:57.627Z,724
2017-12-26T07:28:57.695Z,732
2017-12-26T07:29:57.666Z,744
2017-12-26T07:30:57.683Z,760
2017-12-26T07:31:57.448Z,788
2017-12-26T07:32:57.480Z,800
2017-12-26T07:33:57.472Z,824
2017-12-26T07:34:57.243Z,848
2017-12-26T07:35:57.745Z,880
2017-12-26T07:36:57.755Z,904
2017-12-26T07:37:57.512Z,928
2017-12-26T07:38:57.478Z,948
2017-12-26T07:39:57.293Z,976
2017-12-26T07:40:57.810Z,1004
2017-12-26T07:41:57.576Z,1036
2017-12-26T07:42:57.837Z,1064
2017-12-26T07:43:57.650Z,1128
2017-12-26T07:44:57.617Z,1240
2017-12-26T07:45:57.379Z,1316
2017-12-26T07:46:57.682Z,1328
2017-12-26T07:47:57.662Z,1336
2017-12-26T07:48:57.936Z,1340
2017-12-26T07:49:57.691Z,1392
2017-12-26T07:50:57.715Z,1436
2017-12-26T07:51:57.720Z,1472
2017-12-26T07:52:57.989Z,1420
2017-12-26T07:53:57.497Z,1448
2017-12-26T07:54:58.021Z,1484
2017-12-26T07:55:57.795Z,1456
2017-12-26T07:56:57.796Z,1464
2017-12-26T07:57:57.807Z,1496
2017-12-26T07:58:58.146Z,1512
2017-12-26T07:59:57.835Z,1532
2017-12-26T08:00:58.107Z,1588
2017-12-26T08:01:58.116Z,1708
2017-12-26T08:02:57.877Z,1744
2017-12-26T08:03:57.899Z,1788
2017-12-26T08:04:58.163Z,1808
2017-12-26T08:05:57.922Z,1844
2017-12-26T08:06:57.938Z,1944
2017-12-26T08:07:58.210Z,1940
2017-12-26T08:08:57.971Z,1908
2017-12-26T08:09:58.232Z,1996
2017-12-26T08:10:57.992Z,2048
2017-12-26T08:11:58.252Z,1968
2017-12-26T08:12:58.276Z,1972
2017-12-26T08:13:58.035Z,2080
2017-12-26T08:14:57.545Z,2120
2017-12-26T08:15:58.375Z,2152
2017-12-26T08:16:58.329Z,2272
2017-12-26T08:17:58.101Z,2344
2017-12-26T08:18:58.115Z,2460
2017-12-26T08:19:58.133Z,2384
2017-12-26T08:20:58.398Z,2524
2017-12-26T08:21:58.163Z,2692
2017-12-26T08:22:58.206Z,2724
2017-12-26T08:23:58.215Z,2728
2017-12-26T08:24:57.961Z,2792
2017-12-26T08:25:57.963Z,3088
2017-12-26T08:26:57.987Z,3020
2017-12-26T08:27:58.254Z,3052
2017-12-26T08:28:58.271Z,2900
2017-12-26T08:29:58.538Z,2908
2017-12-26T08:30:58.344Z,2880
2017-12-26T08:31:58.322Z,3032
2017-12-26T08:32:58.082Z,3032
2017-12-26T08:33:58.088Z,3192
2017-12-26T08:34:58.372Z,3072
2017-12-26T08:35:58.380Z,2896
2017-12-26T08:36:58.381Z,2960
2017-12-26T08:37:58.398Z,3336
2017-12-26T08:38:58.416Z,3544
2017-12-26T08:39:58.691Z,3500
2017-12-26T08:40:58.706Z,3416
2017-12-26T08:41:58.466Z,3648
2017-12-26T08:42:58.490Z,3604
2017-12-26T08:43:58.498Z,3696
2017-12-26T08:44:58.507Z,3776
2017-12-26T08:45:58.603Z,4200
2017-12-26T08:46:58.790Z,4172
2017-12-26T08:47:58.556Z,4308
2017-12-26T08:48:58.572Z,4396
2017-12-26T08:49:58.599Z,4680
2017-12-26T08:50:58.603Z,4660
2017-12-26T08:51:58.895Z,4692
2017-12-26T08:52:58.652Z,4884
2017-12-26T08:53:58.644Z,4936
2017-12-26T08:54:58.422Z,4896
2017-12-26T08:55:58.676Z,4840
2017-12-26T08:56:58.949Z,4940
2017-12-26T08:57:58.973Z,4932
2017-12-26T08:58:58.981Z,5084
2017-12-26T08:59:58.994Z,5128
2017-12-26T09:00:58.902Z,5188
2017-12-26T09:01:59.082Z,5204
2017-12-26T09:02:58.788Z,5240
2017-12-26T09:03:59.068Z,5272
2017-12-26T09:04:59.072Z,5284
2017-12-26T09:05:58.842Z,5312
2017-12-26T09:06:58.854Z,5336
2017-12-26T09:07:59.120Z,5348
2017-12-26T09:08:59.135Z,5368
2017-12-26T09:09:58.394Z,5316
2017-12-26T09:10:59.167Z,5308
2017-12-26T09:11:58.933Z,5308
2017-12-26T09:12:58.716Z,5380
2017-12-26T09:13:58.968Z,5340
2017-12-26T09:14:58.472Z,5464
2017-12-26T09:15:59.307Z,5528
2017-12-26T09:16:59.020Z,5564
2017-12-26T09:17:59.459Z,5588
2017-12-26T09:18:59.042Z,5568
2017-12-26T09:19:58.819Z,5616
2017-12-26T09:20:59.078Z,5632
2017-12-26T09:21:58.840Z,5612
2017-12-26T09:22:58.857Z,5644
2017-12-26T09:23:59.395Z,5668
2017-12-26T09:24:59.400Z,5668
2017-12-26T09:25:59.163Z,5720
2017-12-26T09:26:58.946Z,5704
2017-12-26T09:27:58.941Z,5728
2017-12-26T09:28:58.957Z,5704
2017-12-26T09:29:59.246Z,5796
2017-12-26T09:30:59.308Z,5784
2017-12-26T09:31:59.263Z,5720
2017-12-26T09:32:59.528Z,5676
2017-12-26T09:33:58.788Z,5672
2017-12-26T09:34:59.309Z,5776
2017-12-26T09:35:59.074Z,5972
2017-12-26T09:36:59.349Z,6012
2017-12-26T09:37:59.619Z,6000
2017-12-26T09:38:59.389Z,6124
2017-12-26T09:39:59.652Z,6260
2017-12-26T09:40:59.180Z,6336
2017-12-26T09:41:59.685Z,6292
2017-12-26T09:42:59.197Z,6324
2017-12-26T09:43:59.472Z,6308
2017-12-26T09:44:59.742Z,6324
2017-12-26T09:45:59.609Z,6368
2017-12-26T09:46:59.517Z,6372
2017-12-26T09:47:59.281Z,6380
2017-12-26T09:48:59.851Z,6424
2017-12-26T09:49:59.822Z,6428
2017-12-26T09:50:59.080Z,6452
2017-12-26T09:51:59.607Z,6576
2017-12-26T09:52:59.617Z,6804
2017-12-26T09:53:59.140Z,7220
2017-12-26T09:54:59.654Z,16128
2017-12-26T09:55:59.923Z,27232
2017-12-26T09:56:59.945Z,28928
2017-12-26T09:57:59.709Z,28896
2017-12-26T09:58:59.728Z,29184
2017-12-26T09:59:59.746Z,27680
2017-12-26T10:00:59.809Z,26080
2017-12-26T10:02:00.034Z,23744
2017-12-26T10:02:59.537Z,25056
2017-12-26T10:03:59.843Z,25600
2017-12-26T10:04:59.833Z,26848
2017-12-26T10:06:00.139Z,27456
2017-12-26T10:07:00.127Z,26112
2017-12-26T10:08:00.163Z,26304
2017-12-26T10:08:59.659Z,25504
2017-12-26T10:09:59.939Z,29536
2017-12-26T10:11:00.212Z,31136
2017-12-26T10:11:59.972Z,27904
2017-12-26T10:12:59.995Z,27744
2017-12-26T10:14:00.013Z,30368
2017-12-26T10:15:00.036Z,31232
2017-12-26T10:16:00.129Z,28256
2017-12-26T10:17:00.081Z,26944
2017-12-26T10:17:59.840Z,29312
2017-12-26T10:19:00.572Z,28704
2017-12-26T10:20:00.142Z,28832
2017-12-26T10:20:59.910Z,36192
2017-12-26T10:22:00.182Z,40384
2017-12-26T10:23:00.468Z,40160
2017-12-26T10:24:00.250Z,41408
2017-12-26T10:25:00.271Z,41088
2017-12-26T10:26:00.339Z,44064
2017-12-26T10:27:00.316Z,40928
2017-12-26T10:28:00.347Z,43840
2017-12-26T10:29:00.118Z,42368
2017-12-26T10:30:00.652Z,43520
2017-12-26T10:31:00.216Z,44896
2017-12-26T10:31:59.960Z,44128
2017-12-26T10:33:00.218Z,45792
2017-12-26T10:34:00.522Z,39552
2017-12-26T10:35:00.523Z,43360
2017-12-26T10:36:00.550Z,41600
2017-12-26T10:37:00.581Z,43264
2017-12-26T10:38:00.348Z,34432
2017-12-26T10:39:00.656Z,29024
2017-12-26T10:40:00.907Z,33280
2017-12-26T10:41:00.694Z,37440
2017-12-26T10:42:00.203Z,33824
2017-12-26T10:43:00.743Z,31008
2017-12-26T10:44:01.018Z,28544
2017-12-26T10:45:00.534Z,33184
2017-12-26T10:46:00.867Z,29760
2017-12-26T10:47:01.116Z,26176
2017-12-26T10:48:01.124Z,22752
2017-12-26T10:49:01.151Z,25056
2017-12-26T10:50:01.023Z,25728
2017-12-26T10:51:00.952Z,29344
2017-12-26T10:52:00.979Z,38240
2017-12-26T10:53:01.004Z,33408
2017-12-26T10:54:00.777Z,28448
2017-12-26T10:55:01.094Z,30048
2017-12-26T10:56:00.837Z,26560
2017-12-26T10:57:01.111Z,30720
2017-12-26T10:58:00.879Z,29472
2017-12-26T10:59:01.164Z,24576
2017-12-26T11:00:01.192Z,22976
2017-12-26T11:01:01.269Z,27584
2017-12-26T11:02:01.241Z,24064
2017-12-26T11:03:00.762Z,22720
2017-12-26T11:04:01.041Z,23008
2017-12-26T11:05:01.068Z,21408
2017-12-26T11:06:01.092Z,21408
2017-12-26T11:07:01.373Z,26880
2017-12-26T11:08:01.146Z,30112
2017-12-26T11:09:01.171Z,30080
2017-12-26T11:10:01.197Z,23840
2017-12-26T11:11:01.477Z,20576
2017-12-26T11:12:01.251Z,27616
2017-12-26T11:13:01.789Z,26560
2017-12-26T11:14:01.559Z,31200
2017-12-26T11:15:01.587Z,31392
2017-12-26T11:16:01.410Z,34752
2017-12-26T11:17:01.644Z,29792
2017-12-26T11:18:01.413Z,30016
2017-12-26T11:19:01.189Z,31648
2017-12-26T11:20:01.974Z,29568
2017-12-26T11:21:01.748Z,23968
2017-12-26T11:22:01.791Z,23360
2017-12-26T11:23:02.060Z,30944
2017-12-26T11:24:02.098Z,34144
2017-12-26T11:25:01.607Z,35968
2017-12-26T11:26:02.142Z,39520
2017-12-26T11:27:01.669Z,33888
2017-12-26T11:28:02.323Z,37824
2017-12-26T11:29:01.720Z,35840
2017-12-26T11:30:02.258Z,37504
2017-12-26T11:31:02.332Z,43200
2017-12-26T11:32:02.063Z,48000
2017-12-26T11:33:02.090Z,47456
2017-12-26T11:34:01.864Z,45728
2017-12-26T11:35:02.411Z,44864
2017-12-26T11:36:02.431Z,47584
2017-12-26T11:37:01.959Z,52576
2017-12-26T11:38:02.492Z,55136
2017-12-26T11:39:02.270Z,52864
2017-12-26T11:40:02.045Z,53888
2017-12-26T11:41:02.330Z,58656
2017-12-26T11:42:01.853Z,62816
2017-12-26T11:43:02.405Z,65952
2017-12-26T11:44:02.423Z,60352
2017-12-26T11:45:02.461Z,52864
2017-12-26T11:46:02.278Z,51264
2017-12-26T11:47:02.510Z,51552
2017-12-26T11:48:02.549Z,49312
2017-12-26T11:49:02.842Z,39232
2017-12-26T11:50:02.364Z,39648
2017-12-26T11:51:02.632Z,31232
2017-12-26T11:52:02.961Z,45312
2017-12-26T11:53:02.695Z,48736
2017-12-26T11:54:02.985Z,54880
2017-12-26T11:55:02.759Z,54368
2017-12-26T11:56:02.794Z,52800
2017-12-26T11:57:02.828Z,48640
2017-12-26T11:58:03.126Z,49472
2017-12-26T11:59:02.630Z,53568
2017-12-26T12:00:02.665Z,54752
2017-12-26T12:01:03.247Z,55424
2017-12-26T12:02:03.227Z,54656
2017-12-26T12:03:03.002Z,56160
2017-12-26T12:04:02.780Z,57664
2017-12-26T12:05:02.816Z,61376
2017-12-26T12:06:03.101Z,62304
2017-12-26T12:07:03.140Z,62528
2017-12-26T12:08:03.163Z,65728
2017-12-26T12:09:02.935Z,65728
2017-12-26T12:10:02.968Z,64960
2017-12-26T12:11:02.995Z,66976
2017-12-26T12:12:03.535Z,70784
2017-12-26T12:13:03.565Z,71904
2017-12-26T12:14:03.338Z,67136
2017-12-26T12:15:03.374Z,70624
2017-12-26T12:16:03.711Z,68352
2017-12-26T12:17:03.482Z,67488
2017-12-26T12:18:02.959Z,69312
2017-12-26T12:19:03.519Z,67776
2017-12-26T12:20:03.795Z,69728
2017-12-26T12:21:03.815Z,72480
2017-12-26T12:22:03.344Z,73184
2017-12-26T12:23:03.372Z,74656
2017-12-26T12:24:03.653Z,76640
2017-12-26T12:25:03.699Z,77472
2017-12-26T12:26:03.458Z,77408
2017-12-26T12:27:03.498Z,78208
2017-12-26T12:28:03.781Z,77664
2017-12-26T12:29:03.555Z,79264
2017-12-26T12:30:04.093Z,81696
2017-12-26T12:31:03.614Z,79712
2017-12-26T12:32:03.900Z,74912
2017-12-26T12:33:04.194Z,73792
2017-12-26T12:34:03.966Z,70816
2017-12-26T12:35:04.348Z,71264
2017-12-26T12:36:04.278Z,78368
2017-12-26T12:37:03.810Z,79840
2017-12-26T12:38:03.841Z,78496
2017-12-26T12:39:04.120Z,71552
2017-12-26T12:40:03.898Z,74848
2017-12-26T12:41:04.180Z,78176
2017-12-26T12:42:04.219Z,79008
2017-12-26T12:43:04.243Z,69024
2017-12-26T12:44:04.025Z,51776
2017-12-26T12:45:04.560Z,50624
2017-12-26T12:46:04.337Z,43872
2017-12-26T12:47:04.623Z,46944
2017-12-26T12:48:04.143Z,54560
2017-12-26T12:49:04.447Z,51200
2017-12-26T12:50:04.512Z,55296
2017-12-26T12:51:04.496Z,56288
2017-12-26T12:52:04.294Z,59136
2017-12-26T12:53:04.555Z,53536
2017-12-26T12:54:04.845Z,64608
2017-12-26T12:55:04.361Z,74432
2017-12-26T12:56:04.905Z,72128
2017-12-26T12:57:04.932Z,68032
2017-12-26T12:58:04.714Z,65824
2017-12-26T12:59:04.227Z,66432
2017-12-26T13:00:04.771Z,68896
2017-12-26T13:01:04.561Z,72160
2017-12-26T13:02:04.824Z,74464
2017-12-26T13:03:04.344Z,77632
2017-12-26T13:04:05.132Z,77248
2017-12-26T13:05:04.968Z,76096
2017-12-26T13:06:05.223Z,74720
2017-12-26T13:07:04.717Z,74208
2017-12-26T13:08:04.999Z,74656
2017-12-26T13:09:04.520Z,76096
2017-12-26T13:10:05.055Z,76288
2017-12-26T13:11:04.844Z,66016
2017-12-26T13:12:05.374Z,51776
2017-12-26T13:13:04.905Z,37504
2017-12-26T13:14:04.931Z,23840
2017-12-26T13:15:05.459Z,11880
2017-12-26T13:16:05.493Z,5172
2017-12-26T13:17:05.520Z,5164
2017-12-26T13:18:05.558Z,5352
2017-12-26T13:19:05.324Z,5624
2017-12-26T13:20:05.158Z,5828
2017-12-26T13:21:05.634Z,6380
2017-12-26T13:22:05.661Z,6812
2017-12-26T13:23:04.925Z,6636
2017-12-26T13:24:05.459Z,6836
2017-12-26T13:25:05.231Z,7312
2017-12-26T13:26:05.509Z,7292
2017-12-26T13:27:05.538Z,7252
2017-12-26T13:28:05.310Z,7200
2017-12-26T13:29:05.630Z,7200
2017-12-26T13:30:05.359Z,7116
2017-12-26T13:31:05.380Z,6856
2017-12-26T13:32:05.404Z,6680
2017-12-26T13:33:05.435Z,6836
2017-12-26T13:34:05.704Z,6988
2017-12-26T13:35:05.776Z,7096
2017-12-26T13:36:05.995Z,7300
2017-12-26T13:37:06.025Z,7524
2017-12-26T13:38:06.040Z,7684
2017-12-26T13:39:06.061Z,7552
2017-12-26T13:40:06.081Z,7368
2017-12-26T13:41:06.100Z,7380
2017-12-26T13:42:05.875Z,7356
2017-12-26T13:43:06.148Z,7052
2017-12-26T13:44:05.965Z,6764
2017-12-26T13:45:05.952Z,6784
2017-12-26T13:46:05.700Z,6976
2017-12-26T13:47:05.724Z,7040
2017-12-26T13:48:06.001Z,6980
2017-12-26T13:49:06.074Z,6892
2017-12-26T13:50:06.386Z,6980
2017-12-26T13:51:06.077Z,6868
2017-12-26T13:52:06.391Z,6684
2017-12-26T13:53:05.856Z,6644
2017-12-26T13:54:06.126Z,6640
2017-12-26T13:55:06.150Z,6648